Time;durP1;ratioP1;P1;durP2;ratioP2;P2;SDS_P1;SDS_P2;PMS_P1;PMS_P2;Temp;Humidity;BMP_temperature;BMP_pressure;BME280_temperature;BME280_humidity;BME280_pressure;Samples;Min_cycle;Max_cycle;Signal;HPM_P1;HPM_P2
2024/03/17 00:02:54;;;;;;;0.50;0.50;;;9.70;99.90;;;;;;10576221;28;20202;-78
2024/03/17 00:07:56;;;;;;;0.50;0.50;;;9.70;99.90;;;;;;10573666;28;20704;-79
2024/03/17 00:13:01;;;;;;;0.60;0.60;;;9.60;99.90;;;;;;10578245;28;20215;-78
2024/03/17 00:18:04;;;;;;;0.67;0.67;;;9.60;99.90;;;;;;10577361;28;20226;-78
2024/03/17 00:23:07;;;;;;;0.80;0.80;;;9.60;99.90;;;;;;10574072;28;20218;-78
2024/03/17 00:28:12;;;;;;;0.90;0.90;;;9.60;99.90;;;;;;10579247;28;20223;-78
2024/03/17 00:33:14;;;;;;;0.50;0.50;;;9.60;99.90;;;;;;10579736;28;20223;-78
2024/03/17 00:38:17;;;;;;;0.60;0.60;;;9.60;99.90;;;;;;10578300;28;20222;-79
2024/03/17 00:43:20;;;;;;;0.53;0.53;;;9.70;99.90;;;;;;10578250;28;20206;-78
2024/03/17 00:48:23;;;;;;;0.57;0.57;;;9.60;99.90;;;;;;10578409;28;20231;-78
2024/03/17 00:53:25;;;;;;;0.60;0.60;;;9.70;99.90;;;;;;10579118;28;20215;-78
2024/03/17 00:58:29;;;;;;;0.60;0.60;;;9.70;99.90;;;;;;10579584;28;20223;-78
2024/03/17 01:03:31;;;;;;;0.50;0.50;;;9.70;99.90;;;;;;10580336;28;20217;-78
2024/03/17 01:08:34;;;;;;;0.50;0.50;;;9.70;99.90;;;;;;10580860;28;20227;-78
2024/03/17 01:13:41;;;;;;;0.60;0.60;;;9.60;99.90;;;;;;10580778;28;20673;-78
2024/03/17 01:18:45;;;;;;;0.60;0.60;;;9.70;99.90;;;;;;10580074;28;20271;-78
2024/03/17 01:23:49;;;;;;;0.60;0.60;;;9.60;99.90;;;;;;10564368;28;20733;-78
2024/03/17 01:28:52;;;;;;;0.50;0.50;;;9.60;99.90;;;;;;10580554;28;20773;-78
2024/03/17 01:33:55;;;;;;;0.60;0.60;;;9.50;99.90;;;;;;10591506;28;20219;-78
2024/03/17 01:38:58;;;;;;;0.60;0.60;;;9.50;99.90;;;;;;10592481;28;20245;-79
2024/03/17 01:44:02;;;;;;;0.60;0.60;;;9.50;99.90;;;;;;10591618;28;20255;-78
2024/03/17 01:49:04;;;;;;;0.60;0.60;;;9.40;99.90;;;;;;10586676;28;20260;-79
2024/03/17 01:54:07;;;;;;;0.60;0.60;;;9.50;99.90;;;;;;10591946;28;20212;-78
2024/03/17 01:59:12;;;;;;;0.50;0.50;;;9.50;99.90;;;;;;10589123;28;20219;-79
2024/03/17 02:04:17;;;;;;;0.60;0.60;;;9.50;99.90;;;;;;10589432;28;20187;-79
2024/03/17 02:09:21;;;;;;;0.60;0.60;;;9.60;99.90;;;;;;10593958;28;20226;-79
2024/03/17 02:14:25;;;;;;;0.60;0.60;;;9.60;99.90;;;;;;10593524;28;20223;-80
2024/03/17 02:19:28;;;;;;;0.50;0.50;;;9.60;99.90;;;;;;10580585;28;20632;-78
2024/03/17 02:24:31;;;;;;;0.60;0.60;;;9.60;99.90;;;;;;10589206;28;20203;-79
2024/03/17 02:29:34;;;;;;;0.60;0.60;;;9.60;99.90;;;;;;10584798;28;20219;-79
2024/03/17 02:34:37;;;;;;;0.60;0.60;;;9.70;99.90;;;;;;10565967;28;20192;-79
2024/03/17 02:39:41;;;;;;;0.50;0.50;;;9.60;99.90;;;;;;10590913;28;20219;-78
2024/03/17 02:44:45;;;;;;;0.60;0.60;;;9.60;99.90;;;;;;10585829;28;20691;-79
2024/03/17 02:49:50;;;;;;;0.50;0.50;;;9.70;99.90;;;;;;10576153;28;20650;-79
2024/03/17 02:54:54;;;;;;;0.50;0.50;;;9.70;99.90;;;;;;10591626;28;20207;-79
2024/03/17 02:59:57;;;;;;;0.70;0.70;;;9.70;99.90;;;;;;10612771;28;20211;-78
2024/03/17 03:04:59;;;;;;;0.60;0.60;;;9.70;99.90;;;;;;10617238;28;20199;-78
2024/03/17 03:10:03;;;;;;;0.60;0.60;;;9.60;99.90;;;;;;10615517;28;20213;-78
2024/03/17 03:15:08;;;;;;;0.70;0.70;;;9.60;99.90;;;;;;10592914;28;20203;-79
2024/03/17 03:20:12;;;;;;;0.70;0.70;;;9.60;99.90;;;;;;10587614;28;20211;-79
2024/03/17 03:25:15;;;;;;;0.50;0.50;;;9.60;99.90;;;;;;10583597;28;20729;-78
2024/03/17 03:30:20;;;;;;;0.50;0.50;;;9.50;99.90;;;;;;10585237;28;20231;-79
2024/03/17 03:35:23;;;;;;;0.80;0.80;;;9.50;99.90;;;;;;10585247;28;20557;-78
2024/03/17 03:40:27;;;;;;;0.60;0.60;;;9.40;99.90;;;;;;10581263;28;20223;-79
2024/03/17 03:45:30;;;;;;;0.60;0.60;;;9.30;99.90;;;;;;10589921;28;20641;-79
2024/03/17 03:50:33;;;;;;;0.60;0.60;;;9.30;99.90;;;;;;10567956;28;20230;-78
2024/03/17 03:55:37;;;;;;;0.60;0.60;;;9.30;99.90;;;;;;10577681;28;20199;-78
2024/03/17 04:00:40;;;;;;;0.70;0.70;;;9.20;99.90;;;;;;10570701;28;20280;-78
2024/03/17 04:05:42;;;;;;;1.10;1.10;;;9.20;99.90;;;;;;10580158;28;20202;-78
2024/03/17 04:10:46;;;;;;;0.90;0.90;;;9.10;99.90;;;;;;10570731;28;20226;-78
2024/03/17 04:15:49;;;;;;;0.80;0.80;;;9.10;99.90;;;;;;10570053;28;20210;-79
2024/03/17 04:20:52;;;;;;;0.90;0.90;;;9.10;99.90;;;;;;10564987;28;20223;-79
2024/03/17 04:25:56;;;;;;;0.97;0.97;;;9.10;99.90;;;;;;10570734;28;20348;-77
2024/03/17 04:31:05;;;;;;;0.87;0.87;;;9.10;99.90;;;;;;10573519;28;20220;-77
2024/03/17 04:36:08;;;;;;;0.70;0.70;;;9.10;99.90;;;;;;10578157;28;20228;-78
2024/03/17 04:41:16;;;;;;;0.70;0.70;;;9.10;99.90;;;;;;10582170;28;20211;-78
2024/03/17 04:46:18;;;;;;;0.90;0.90;;;9.10;99.90;;;;;;10585455;28;20247;-78
2024/03/17 04:51:21;;;;;;;0.80;0.80;;;9.10;99.90;;;;;;10581845;22;20223;-77
2024/03/17 04:56:24;;;;;;;0.80;0.80;;;9.10;99.90;;;;;;10555608;28;20199;-74
2024/03/17 05:01:27;;;;;;;0.60;0.60;;;9.00;99.90;;;;;;10541968;28;20665;-77
2024/03/17 05:06:29;;;;;;;0.70;0.70;;;9.00;99.90;;;;;;10539543;28;20203;-76
2024/03/17 05:11:35;;;;;;;1.10;1.10;;;8.90;99.90;;;;;;10539743;28;20237;-77
2024/03/17 05:16:37;;;;;;;1.00;1.00;;;8.90;99.90;;;;;;10539609;28;20552;-75
2024/03/17 05:21:40;;;;;;;0.90;0.90;;;8.80;99.90;;;;;;10539360;28;20265;-77
2024/03/17 05:26:43;;;;;;;1.00;1.00;;;8.80;99.90;;;;;;10539440;28;20207;-76
2024/03/17 05:31:47;;;;;;;1.30;1.30;;;8.80;99.90;;;;;;10525149;28;20228;-75
2024/03/17 05:36:49;;;;;;;0.90;0.90;;;8.70;99.90;;;;;;10538451;28;20619;-77
2024/03/17 05:41:54;;;;;;;0.90;0.90;;;8.70;99.90;;;;;;10537040;28;20220;-78
2024/03/17 05:46:57;;;;;;;1.20;1.20;;;8.70;99.90;;;;;;10489621;28;20688;-77
2024/03/17 05:52:00;;;;;;;0.80;0.80;;;8.70;99.90;;;;;;10536413;28;20227;-77
2024/03/17 05:57:04;;;;;;;0.93;0.93;;;8.70;99.90;;;;;;10519685;28;20203;-75
2024/03/17 06:02:06;;;;;;;0.90;0.90;;;8.70;99.90;;;;;;10537970;28;20208;-75
2024/03/17 06:07:08;;;;;;;0.83;0.83;;;8.80;99.90;;;;;;10537567;28;20204;-79
2024/03/17 06:12:12;;;;;;;0.90;0.90;;;8.80;99.90;;;;;;10522017;28;20580;-77
2024/03/17 06:17:14;;;;;;;1.10;1.10;;;8.80;99.90;;;;;;10516960;28;20192;-74
2024/03/17 06:22:17;;;;;;;0.90;0.90;;;8.80;99.90;;;;;;10503611;28;20633;-75
2024/03/17 06:27:20;;;;;;;0.90;0.90;;;8.90;99.90;;;;;;10537007;28;20584;-77
2024/03/17 06:32:23;;;;;;;1.20;1.20;;;8.90;99.90;;;;;;10523310;28;20231;-76
2024/03/17 06:37:25;;;;;;;1.03;1.03;;;8.90;99.90;;;;;;10536095;28;20673;-77
2024/03/17 06:42:29;;;;;;;0.93;0.93;;;8.90;99.90;;;;;;10525903;28;20273;-77
2024/03/17 06:47:31;;;;;;;1.00;1.00;;;9.00;99.90;;;;;;10517610;28;20204;-78
2024/03/17 06:52:34;;;;;;;0.90;0.90;;;9.00;99.90;;;;;;10526672;28;20236;-77
2024/03/17 06:57:37;;;;;;;1.00;1.00;;;9.10;99.90;;;;;;10535485;28;20199;-78
2024/03/17 07:02:40;;;;;;;0.87;0.87;;;9.20;99.90;;;;;;10527707;28;20257;-76
2024/03/17 07:07:43;;;;;;;1.20;1.20;;;9.40;99.90;;;;;;10534813;28;20199;-77
2024/03/17 07:12:47;;;;;;;1.00;1.00;;;9.70;99.90;;;;;;10528685;28;20273;-76
2024/03/17 07:17:51;;;;;;;0.90;0.90;;;9.80;99.90;;;;;;10532756;28;20719;-75
2024/03/17 07:22:53;;;;;;;1.20;1.20;;;10.00;99.90;;;;;;10494244;28;20622;-76
2024/03/17 07:27:57;;;;;;;0.90;0.90;;;10.10;99.90;;;;;;10533860;28;20208;-77
2024/03/17 07:32:59;;;;;;;0.90;0.90;;;10.20;99.90;;;;;;10529491;28;20281;-78
2024/03/17 07:38:02;;;;;;;0.87;0.87;;;10.40;99.90;;;;;;10533916;28;20206;-78
2024/03/17 07:43:05;;;;;;;0.97;0.97;;;10.50;99.90;;;;;;10531213;28;20208;-77
2024/03/17 07:48:08;;;;;;;0.70;0.70;;;10.50;99.90;;;;;;10533381;28;20639;-77
2024/03/17 07:53:10;;;;;;;1.00;1.00;;;10.70;99.90;;;;;;10518680;28;20207;-77
2024/03/17 07:58:14;;;;;;;0.90;0.90;;;10.90;99.90;;;;;;10533197;28;20220;-77
2024/03/17 08:03:16;;;;;;;1.00;1.00;;;11.20;99.90;;;;;;10532794;28;20595;-76
2024/03/17 08:08:19;;;;;;;0.73;0.73;;;11.40;99.90;;;;;;10532844;28;20281;-77
2024/03/17 08:13:23;;;;;;;0.80;0.80;;;11.70;99.90;;;;;;10513614;28;20919;-76
2024/03/17 08:18:26;;;;;;;0.70;0.70;;;11.90;99.90;;;;;;10502511;28;20228;-76
2024/03/17 08:23:29;;;;;;;0.80;0.80;;;12.20;99.90;;;;;;10530279;28;20196;-77
2024/03/17 08:28:33;;;;;;;0.80;0.80;;;12.30;99.90;;;;;;10531164;28;20626;-77
2024/03/17 08:33:35;;;;;;;0.57;0.57;;;12.50;99.90;;;;;;10531933;28;20288;-76
2024/03/17 08:38:38;;;;;;;0.50;0.50;;;12.50;99.90;;;;;;10528749;28;20213;-76
2024/03/17 08:43:43;;;;;;;0.60;0.60;;;12.50;99.90;;;;;;10513320;28;20196;-77
2024/03/17 08:48:45;;;;;;;0.53;0.53;;;12.60;99.90;;;;;;10518408;28;20285;-76
2024/03/17 08:53:47;;;;;;;0.60;0.60;;;12.70;99.90;;;;;;10527718;28;20647;-75
2024/03/17 08:58:51;;;;;;;0.60;0.60;;;12.90;99.90;;;;;;10513196;28;20573;-76
2024/03/17 09:03:56;;;;;;;0.40;0.40;;;13.00;99.90;;;;;;10529860;28;20216;-76
2024/03/17 09:08:58;;;;;;;0.40;0.40;;;13.10;99.90;;;;;;10531066;28;20569;-76
2024/03/17 09:14:02;;;;;;;0.50;0.50;;;13.30;99.90;;;;;;10510936;28;20215;-74
2024/03/17 09:19:04;;;;;;;0.50;0.50;;;13.40;99.90;;;;;;10530611;28;20220;-76
2024/03/17 09:24:08;;;;;;;0.50;0.50;;;13.50;99.90;;;;;;10512849;28;20260;-77
2024/03/17 09:29:12;;;;;;;0.50;0.50;;;13.60;99.90;;;;;;10529656;28;20232;-74
2024/03/17 09:34:14;;;;;;;0.50;0.50;;;13.70;99.90;;;;;;10525354;28;20223;-76
2024/03/17 09:39:16;;;;;;;0.60;0.60;;;13.80;99.90;;;;;;10502721;28;20228;-76
2024/03/17 09:44:20;;;;;;;0.60;0.60;;;14.00;99.90;;;;;;10519177;28;20200;-74
2024/03/17 09:49:23;;;;;;;0.50;0.50;;;14.20;99.90;;;;;;10523777;28;20227;-76
2024/03/17 09:54:25;;;;;;;0.40;0.40;;;14.30;99.90;;;;;;10526173;28;20219;-76
2024/03/17 09:59:29;;;;;;;0.50;0.50;;;14.40;99.90;;;;;;10533046;28;20681;-77
2024/03/17 10:04:33;;;;;;;0.50;0.50;;;14.50;99.90;;;;;;10509184;28;20680;-78
2024/03/17 10:09:36;;;;;;;0.50;0.50;;;14.60;99.90;;;;;;10530301;28;20281;-75
2024/03/17 10:14:40;;;;;;;0.30;0.30;;;14.70;98.90;;;;;;10517811;28;20220;-76
2024/03/17 10:19:42;;;;;;;0.50;0.50;;;14.70;99.10;;;;;;10532032;28;20223;-76
2024/03/17 10:24:44;;;;;;;0.50;0.50;;;14.70;98.40;;;;;;10534471;28;20200;-77
2024/03/17 10:29:48;;;;;;;0.50;0.50;;;14.80;98.60;;;;;;10518204;28;20224;-76
2024/03/17 10:34:51;;;;;;;0.40;0.40;;;14.80;97.80;;;;;;10533649;28;20220;-76
2024/03/17 10:39:55;;;;;;;0.30;0.30;;;14.90;95.80;;;;;;10533977;28;20212;-76
2024/03/17 10:44:59;;;;;;;0.50;0.50;;;14.90;96.50;;;;;;10533784;28;20204;-77
2024/03/17 10:50:03;;;;;;;0.40;0.40;;;15.00;97.00;;;;;;10550079;22;1077794;-78
2024/03/17 10:55:09;;;;;;;0.47;0.47;;;15.10;95.20;;;;;;10630310;27;20230;-79
2024/03/17 11:00:17;;;;;;;0.40;0.40;;;15.20;96.10;;;;;;10588055;28;20256;-79
2024/03/17 11:05:22;;;;;;;0.40;0.40;;;15.20;96.20;;;;;;10591594;28;20622;-80
2024/03/17 11:10:27;;;;;;;0.40;0.40;;;15.20;96.10;;;;;;10592301;28;20249;-80
2024/03/17 11:15:53;;;;;;;0.40;0.40;;;15.30;96.20;;;;;;10592001;28;20609;-80
2024/03/17 11:21:01;;;;;;;0.50;0.50;;;15.20;95.60;;;;;;10591501;28;20230;-80
2024/03/17 11:26:06;;;;;;;0.50;0.50;;;15.10;95.20;;;;;;10590834;28;20183;-80
2024/03/17 11:31:35;;;;;;;0.50;0.50;;;15.00;95.20;;;;;;10591354;28;20231;-80
2024/03/17 11:36:39;;;;;;;0.50;0.50;;;15.00;94.90;;;;;;10577248;28;20216;-79
2024/03/17 11:41:42;;;;;;;0.50;0.50;;;15.00;95.40;;;;;;10592063;28;20235;-81
2024/03/17 11:46:51;;;;;;;0.40;0.40;;;15.00;95.60;;;;;;10589084;28;20660;-80
2024/03/17 11:51:57;;;;;;;0.50;0.50;;;15.00;95.60;;;;;;10580601;28;20223;-80
2024/03/17 11:57:03;;;;;;;0.50;0.50;;;15.00;95.00;;;;;;10581077;28;20226;-81
2024/03/17 12:02:18;;;;;;;0.40;0.40;;;15.10;95.20;;;;;;10591206;28;20223;-81
2024/03/17 12:07:23;;;;;;;0.50;0.50;;;15.20;95.30;;;;;;10585643;28;20206;-80
2024/03/17 12:12:34;;;;;;;0.40;0.40;;;15.20;95.50;;;;;;10589887;28;20223;-81
2024/03/17 12:17:38;;;;;;;0.50;0.50;;;15.10;95.80;;;;;;10593614;28;20248;-81
2024/03/17 12:22:42;;;;;;;0.60;0.60;;;15.10;95.60;;;;;;10580544;28;20215;-80
2024/03/17 12:27:46;;;;;;;0.50;0.50;;;15.10;95.90;;;;;;10586069;28;20203;-80
2024/03/17 12:32:51;;;;;;;0.50;0.50;;;15.00;96.10;;;;;;10583354;28;20212;-80
2024/03/17 12:37:55;;;;;;;0.50;0.50;;;15.00;95.50;;;;;;10586923;28;20590;-80
2024/03/17 12:42:59;;;;;;;0.60;0.60;;;15.10;96.50;;;;;;10588034;28;20268;-81
2024/03/17 12:48:03;;;;;;;0.60;0.60;;;15.20;96.60;;;;;;10575209;28;20241;-80
2024/03/17 12:53:06;;;;;;;0.40;0.40;;;15.30;95.80;;;;;;10583938;28;20788;-81
2024/03/17 13:03:33;;;;;;;0.50;0.50;;;15.30;96.10;;;;;;10581237;28;20183;-80
2024/03/17 13:08:36;;;;;;;0.50;0.50;;;15.40;96.00;;;;;;10581429;28;20778;-80
2024/03/17 13:13:38;;;;;;;0.40;0.40;;;15.40;96.30;;;;;;10582223;28;20218;-80
2024/03/17 13:18:43;;;;;;;0.40;0.40;;;15.50;95.70;;;;;;10580917;28;20249;-80
2024/03/17 13:23:45;;;;;;;0.50;0.50;;;15.60;94.40;;;;;;10583480;28;20751;-81
2024/03/17 13:28:47;;;;;;;0.50;0.50;;;15.60;94.90;;;;;;10591547;28;20215;-80
2024/03/17 13:33:51;;;;;;;0.40;0.40;;;15.60;95.50;;;;;;10591527;28;20219;-80
2024/03/17 13:38:54;;;;;;;0.40;0.40;;;15.70;95.40;;;;;;10591999;28;20265;-80
2024/03/17 13:43:57;;;;;;;0.50;0.50;;;15.80;95.50;;;;;;10583125;28;20598;-80
2024/03/17 13:49:09;;;;;;;0.50;0.50;;;15.80;96.10;;;;;;10589133;28;20231;-80
2024/03/17 13:54:11;;;;;;;0.50;0.50;;;15.80;96.40;;;;;;10588802;28;20211;-79
2024/03/17 13:59:14;;;;;;;0.50;0.50;;;15.80;96.60;;;;;;10589295;28;20241;-79
2024/03/17 14:04:18;;;;;;;0.50;0.50;;;15.80;97.00;;;;;;10588915;28;20628;-79
2024/03/17 14:09:22;;;;;;;0.50;0.50;;;15.70;97.20;;;;;;10588625;28;20230;-80
2024/03/17 14:14:24;;;;;;;0.40;0.40;;;15.50;96.80;;;;;;10592712;28;20708;-80
2024/03/17 14:19:28;;;;;;;0.40;0.40;;;15.40;95.60;;;;;;10591232;28;20219;-80
2024/03/17 14:24:31;;;;;;;0.50;0.50;;;15.30;95.90;;;;;;10573955;28;20200;-79
2024/03/17 14:29:34;;;;;;;0.43;0.43;;;15.20;95.10;;;;;;10593620;28;20296;-80
2024/03/17 14:34:38;;;;;;;0.70;0.70;;;15.20;95.40;;;;;;10604333;28;20223;-82
2024/03/17 14:39:40;;;;;;;0.60;0.60;;;15.20;95.50;;;;;;10614902;28;20215;-80
2024/03/17 14:44:43;;;;;;;0.70;0.70;;;15.30;96.30;;;;;;10610674;28;20187;-81
2024/03/17 14:49:46;;;;;;;0.60;0.60;;;15.30;93.80;;;;;;10607135;28;20242;-80
2024/03/17 14:54:51;;;;;;;0.50;0.50;;;15.40;94.30;;;;;;10575547;28;20234;-81
2024/03/17 14:59:53;;;;;;;0.67;0.67;;;15.40;93.90;;;;;;10584318;28;20340;-81
2024/03/17 15:04:57;;;;;;;0.60;0.60;;;15.40;93.60;;;;;;10590797;28;20664;-79
2024/03/17 15:10:00;;;;;;;0.50;0.50;;;15.30;94.70;;;;;;10590839;28;20218;-80
2024/03/17 15:15:02;;;;;;;0.60;0.60;;;15.10;95.30;;;;;;10574667;28;20222;-81
2024/03/17 15:20:16;;;;;;;0.63;0.63;;;15.00;95.80;;;;;;10586130;28;20227;-82
2024/03/17 15:25:19;;;;;;;0.60;0.60;;;14.90;94.70;;;;;;10588895;28;20259;-81
2024/03/17 15:30:25;;;;;;;0.60;0.60;;;14.80;95.70;;;;;;10590300;28;20219;-81
2024/03/17 15:35:30;;;;;;;0.60;0.60;;;14.60;96.90;;;;;;10592803;28;20252;-80
2024/03/17 15:40:33;;;;;;;0.60;0.60;;;14.50;96.50;;;;;;10589589;28;20222;-81
2024/03/17 15:45:37;;;;;;;0.60;0.60;;;14.50;96.20;;;;;;10577209;28;20199;-81
2024/03/17 15:50:42;;;;;;;0.60;0.60;;;14.50;96.40;;;;;;10576623;28;20743;-82
2024/03/17 15:55:45;;;;;;;0.60;0.60;;;14.50;96.90;;;;;;10585629;28;20219;-81
2024/03/17 16:00:47;;;;;;;0.60;0.60;;;14.50;96.10;;;;;;10577446;28;20223;-83
2024/03/17 16:05:53;;;;;;;0.60;0.60;;;14.50;96.00;;;;;;10575712;28;20207;-82
2024/03/17 16:10:58;;;;;;;0.50;0.50;;;14.40;97.10;;;;;;10585452;28;20851;-82
2024/03/17 16:16:01;;;;;;;0.60;0.60;;;14.40;97.60;;;;;;10577179;28;20215;-82
2024/03/17 16:21:09;;;;;;;0.60;0.60;;;14.30;97.10;;;;;;10583413;28;20626;-82
2024/03/17 16:26:13;;;;;;;0.50;0.50;;;14.30;97.80;;;;;;10582734;28;20775;-82
2024/03/17 16:31:15;;;;;;;0.50;0.50;;;14.30;97.00;;;;;;10577670;28;20227;-82
2024/03/17 16:36:20;;;;;;;0.50;0.50;;;14.20;97.20;;;;;;10577917;28;20234;-82
2024/03/17 16:41:22;;;;;;;0.47;0.47;;;14.20;96.50;;;;;;10577651;28;20231;-82
2024/03/17 16:46:49;;;;;;;0.50;0.50;;;14.20;96.80;;;;;;10582777;28;20203;-82
2024/03/17 16:51:53;;;;;;;0.50;0.50;;;14.10;97.50;;;;;;10576717;22;20237;-79
2024/03/17 16:56:56;;;;;;;0.60;0.60;;;14.10;97.20;;;;;;10566628;28;20222;-78
2024/03/17 17:01:58;;;;;;;0.40;0.40;;;14.10;97.10;;;;;;10514560;28;20276;-80
2024/03/17 17:07:02;;;;;;;0.60;0.60;;;14.00;97.10;;;;;;10504404;28;20200;-78
2024/03/17 17:12:05;;;;;;;0.40;0.40;;;14.00;98.10;;;;;;10505321;28;20228;-79
2024/03/17 17:17:10;;;;;;;0.50;0.50;;;13.90;98.60;;;;;;10511860;28;20232;-78
2024/03/17 17:22:16;;;;;;;0.50;0.50;;;13.80;99.20;;;;;;10526284;28;20579;-78
2024/03/17 17:27:19;;;;;;;0.50;0.50;;;13.80;99.10;;;;;;10529830;28;20678;-78
2024/03/17 17:32:21;;;;;;;0.70;0.70;;;13.70;99.30;;;;;;10525297;28;20231;-78
2024/03/17 17:37:25;;;;;;;0.50;0.50;;;13.70;99.90;;;;;;10524194;28;20281;-78
2024/03/17 17:42:27;;;;;;;0.67;0.67;;;13.60;99.90;;;;;;10515817;28;20400;-78
2024/03/17 17:47:30;;;;;;;0.60;0.60;;;13.60;99.90;;;;;;10523889;28;20207;-77
2024/03/17 17:52:34;;;;;;;0.60;0.60;;;13.50;99.90;;;;;;10522598;28;20236;-77
2024/03/17 17:57:37;;;;;;;0.60;0.60;;;13.50;99.90;;;;;;10511864;28;20219;-76
2024/03/17 18:02:39;;;;;;;0.67;0.67;;;13.50;99.80;;;;;;10518532;28;20292;-76
2024/03/17 18:07:43;;;;;;;0.57;0.57;;;13.40;99.80;;;;;;10517366;28;20195;-78
2024/03/17 18:12:45;;;;;;;0.50;0.50;;;13.40;99.70;;;;;;10508576;28;20962;-80
2024/03/17 18:17:48;;;;;;;0.70;0.70;;;13.30;99.60;;;;;;10530244;28;20779;-77
2024/03/17 18:22:52;;;;;;;0.53;0.53;;;13.30;99.50;;;;;;10530237;28;20232;-77
2024/03/17 18:27:54;;;;;;;0.60;0.60;;;13.30;99.70;;;;;;10528800;28;20204;-77
2024/03/17 18:32:57;;;;;;;0.60;0.60;;;13.30;99.60;;;;;;10509046;28;20720;-77
2024/03/17 18:38:01;;;;;;;0.70;0.70;;;13.20;99.40;;;;;;10510545;28;20215;-79
2024/03/17 18:43:04;;;;;;;0.60;0.60;;;13.20;99.30;;;;;;10497563;28;20220;-80
2024/03/17 18:48:07;;;;;;;0.70;0.70;;;13.10;99.30;;;;;;10521046;28;20199;-76
2024/03/17 18:53:10;;;;;;;0.50;0.50;;;13.00;99.50;;;;;;10528035;28;20227;-76
2024/03/17 18:58:13;;;;;;;0.50;0.50;;;13.00;99.50;;;;;;10521972;28;20215;-76
2024/03/17 19:03:15;;;;;;;0.60;0.60;;;12.90;99.10;;;;;;10528149;28;20219;-77
2024/03/17 19:08:19;;;;;;;0.60;0.60;;;12.90;99.30;;;;;;10522991;28;20599;-74
2024/03/17 19:13:22;;;;;;;0.50;0.50;;;12.80;99.40;;;;;;10508240;28;20227;-73
2024/03/17 19:18:25;;;;;;;0.50;0.50;;;12.80;99.40;;;;;;10526586;28;20232;-76
2024/03/17 19:23:29;;;;;;;0.70;0.70;;;12.70;99.40;;;;;;10498947;28;20279;-76
2024/03/17 19:28:31;;;;;;;0.60;0.60;;;12.70;99.10;;;;;;10525702;28;20204;-76
2024/03/17 19:33:34;;;;;;;0.40;0.40;;;12.80;99.10;;;;;;10525359;28;20220;-76
2024/03/17 19:38:40;;;;;;;0.50;0.50;;;12.70;99.30;;;;;;10526165;28;20603;-79
2024/03/17 19:43:43;;;;;;;0.50;0.50;;;12.70;99.50;;;;;;10524967;28;20223;-76
2024/03/17 19:48:49;;;;;;;0.40;0.40;;;12.80;99.50;;;;;;10526458;28;20646;-78
2024/03/17 19:53:53;;;;;;;0.50;0.50;;;12.70;99.40;;;;;;10527300;28;20223;-76
2024/03/17 19:58:55;;;;;;;0.50;0.50;;;12.70;99.70;;;;;;10510475;28;20215;-74
2024/03/17 20:03:58;;;;;;;0.40;0.40;;;12.70;99.60;;;;;;10505612;28;20216;-76
2024/03/17 20:09:02;;;;;;;0.50;0.50;;;12.60;99.80;;;;;;10512997;28;20731;-74
2024/03/17 20:14:04;;;;;;;0.40;0.40;;;12.60;99.80;;;;;;10501731;28;20228;-75
2024/03/17 20:19:06;;;;;;;0.40;0.40;;;12.60;99.80;;;;;;10522696;28;20692;-75
2024/03/17 20:24:12;;;;;;;0.40;0.40;;;12.60;99.90;;;;;;10507610;28;20220;-76
2024/03/17 20:29:14;;;;;;;0.50;0.50;;;12.60;99.60;;;;;;10522958;28;20257;-77
2024/03/17 20:34:17;;;;;;;0.40;0.40;;;12.50;99.80;;;;;;10499974;28;20199;-76
2024/03/17 20:39:23;;;;;;;0.40;0.40;;;12.40;99.90;;;;;;10524822;28;20219;-79
2024/03/17 20:44:25;;;;;;;0.40;0.40;;;12.40;99.90;;;;;;10523459;28;20203;-79
2024/03/17 20:49:28;;;;;;;0.50;0.50;;;12.30;99.90;;;;;;10524890;28;20196;-76
2024/03/17 20:54:33;;;;;;;0.50;0.50;;;12.30;99.90;;;;;;10495319;28;20257;-76
2024/03/17 20:59:35;;;;;;;0.50;0.50;;;12.20;99.90;;;;;;10524471;28;20236;-75
2024/03/17 21:04:38;;;;;;;0.40;0.40;;;12.30;99.90;;;;;;10523184;28;20648;-75
2024/03/17 21:09:42;;;;;;;0.60;0.60;;;12.20;99.90;;;;;;10524250;28;20708;-76
2024/03/17 21:14:44;;;;;;;0.50;0.50;;;12.20;99.90;;;;;;10518472;28;20763;-76
2024/03/17 21:19:49;;;;;;;0.50;0.50;;;12.20;99.80;;;;;;10501624;28;20586;-76
2024/03/17 21:24:53;;;;;;;0.50;0.50;;;12.20;99.80;;;;;;10524500;28;20203;-75
2024/03/17 21:29:56;;;;;;;0.50;0.50;;;12.10;99.90;;;;;;10526952;28;20224;-76
2024/03/17 21:34:59;;;;;;;0.30;0.30;;;12.10;99.90;;;;;;10521542;28;20242;-75
2024/03/17 21:40:05;;;;;;;0.30;0.30;;;12.10;99.90;;;;;;10509297;28;20638;-74
2024/03/17 21:45:10;;;;;;;0.30;0.30;;;12.10;99.90;;;;;;10526149;28;20521;-74
2024/03/17 21:50:13;;;;;;;0.40;0.40;;;12.10;99.90;;;;;;10509930;28;20236;-74
2024/03/17 21:55:17;;;;;;;0.30;0.30;;;12.10;99.90;;;;;;10531445;28;20732;-75
2024/03/17 22:00:21;;;;;;;0.30;0.30;;;12.10;99.90;;;;;;10516432;28;20241;-75
2024/03/17 22:05:23;;;;;;;0.40;0.40;;;12.10;99.90;;;;;;10531544;28;20196;-75
2024/03/17 22:10:27;;;;;;;0.43;0.43;;;12.10;99.90;;;;;;10536214;28;20223;-74
2024/03/17 22:15:30;;;;;;;0.30;0.30;;;12.10;99.90;;;;;;10530310;28;20427;-75
2024/03/17 22:20:32;;;;;;;0.40;0.40;;;12.10;99.90;;;;;;10535571;28;20727;-75
2024/03/17 22:25:36;;;;;;;0.30;0.30;;;12.10;99.90;;;;;;10534939;28;20196;-76
2024/03/17 22:30:38;;;;;;;0.40;0.40;;;12.00;99.90;;;;;;10535134;28;20688;-75
2024/03/17 22:35:40;;;;;;;0.40;0.40;;;12.00;99.90;;;;;;10532793;28;20226;-76
2024/03/17 22:40:53;;;;;;;0.50;0.50;;;11.90;99.90;;;;;;10531376;28;20227;-76
2024/03/17 22:45:56;;;;;;;0.50;0.50;;;11.80;99.90;;;;;;10519740;28;20241;-74
2024/03/17 22:51:00;;;;;;;0.40;0.40;;;11.80;99.90;;;;;;10562646;22;20230;-80
2024/03/17 22:56:04;;;;;;;0.60;0.60;;;11.80;99.90;;;;;;10614543;27;20633;-81
2024/03/17 23:01:07;;;;;;;0.60;0.60;;;11.70;99.90;;;;;;10616360;27;20215;-81
2024/03/17 23:06:10;;;;;;;0.60;0.60;;;11.60;99.90;;;;;;10576778;28;20228;-79
2024/03/17 23:11:15;;;;;;;0.50;0.50;;;11.60;99.90;;;;;;10579190;27;20222;-79
2024/03/17 23:16:17;;;;;;;0.70;0.70;;;11.50;99.90;;;;;;10581883;27;20272;-80
2024/03/17 23:21:19;;;;;;;0.70;0.70;;;11.50;99.90;;;;;;10610316;27;20749;-80
2024/03/17 23:26:23;;;;;;;0.50;0.50;;;11.50;99.90;;;;;;10592419;27;20269;-82
2024/03/17 23:31:25;;;;;;;0.60;0.60;;;11.50;99.90;;;;;;10599893;27;20222;-81
2024/03/17 23:36:28;;;;;;;0.60;0.60;;;11.50;99.90;;;;;;10608793;27;20226;-79
2024/03/17 23:41:31;;;;;;;1.00;1.00;;;11.50;99.90;;;;;;10585439;27;20211;-78
2024/03/17 23:46:34;;;;;;;0.83;0.83;;;11.50;99.90;;;;;;10595120;27;20198;-79
2024/03/17 23:51:36;;;;;;;0.83;0.83;;;11.50;99.90;;;;;;10603165;27;20222;-79
2024/03/17 23:56:40;;;;;;;0.70;0.70;;;11.50;99.90;;;;;;10615279;27;20214;-78
